createdAt,value
2018-11-12T00:01:05.840Z,100122.58
2018-11-12T00:03:35.078Z,100125.03
2018-11-12T00:06:04.294Z,100122.03
2018-11-12T00:08:33.506Z,100124.47
2018-11-12T00:11:02.661Z,100128.65
2018-11-12T00:13:32.034Z,100133.17
2018-11-12T00:16:01.430Z,100123.97
2018-11-12T00:18:30.893Z,100125.26
2018-11-12T00:21:00.128Z,100124.13
2018-11-12T00:23:29.245Z,100130.25
2018-11-12T00:25:58.363Z,100125.89
2018-11-12T00:28:27.538Z,100117.78
2018-11-12T00:30:56.623Z,100128.58
2018-11-12T00:33:25.876Z,100127.36
2018-11-12T00:35:55.137Z,100131.13
2018-11-12T00:38:24.285Z,100126.11
2018-11-12T00:40:53.333Z,100124.77
2018-11-12T00:43:22.607Z,100127.73
2018-11-12T00:45:51.672Z,100051.58
2018-11-12T00:48:20.918Z,100118.86
2018-11-12T00:50:50.516Z,100122.22
2018-11-12T00:53:19.885Z,100114.96
2018-11-12T00:55:49.131Z,100117.09
2018-11-12T00:58:18.302Z,100105.38
2018-11-12T01:00:47.418Z,100108.84
2018-11-12T01:03:16.568Z,100102.27
2018-11-12T01:05:45.873Z,100101.48
2018-11-12T01:08:14.961Z,100102.05
2018-11-12T01:10:44.090Z,100102.98
2018-11-12T01:13:13.463Z,100102.06
2018-11-12T01:15:42.642Z,100096.77
2018-11-12T01:18:11.877Z,100100.59
2018-11-12T01:20:41.185Z,100099.73
2018-11-12T01:23:10.556Z,100101.98
2018-11-12T01:25:39.837Z,100103.27
2018-11-12T01:28:09.002Z,100111.69
2018-11-12T01:30:38.237Z,100111.39
2018-11-12T01:33:07.425Z,100114.69
2018-11-12T01:35:36.702Z,100113.14
2018-11-12T01:38:05.950Z,100126.98
2018-11-12T01:40:35.054Z,100129.06
2018-11-12T01:43:04.365Z,100124.00
2018-11-12T01:45:33.606Z,100137.11
2018-11-12T01:48:02.861Z,100142.59
2018-11-12T01:50:32.098Z,100140.75
2018-11-12T01:53:01.319Z,100139.00
2018-11-12T01:55:30.466Z,100144.23
2018-11-12T01:57:59.764Z,100142.39
2018-11-12T02:00:28.922Z,100145.56
2018-11-12T02:02:58.144Z,100135.56
2018-11-12T02:05:27.272Z,100137.03
2018-11-12T02:07:56.405Z,100134.60
2018-11-12T02:10:25.505Z,100133.98
2018-11-12T02:12:54.663Z,100129.91
2018-11-12T02:15:24.019Z,100130.58
2018-11-12T02:17:53.089Z,100123.55
2018-11-12T02:20:22.703Z,100125.97
2018-11-12T02:22:52.092Z,100116.92
2018-11-12T02:25:21.718Z,100118.44
2018-11-12T02:27:51.029Z,100117.15
2018-11-12T02:30:25.276Z,100116.30
2018-11-12T02:32:54.703Z,100118.22
2018-11-12T02:35:24.082Z,100111.44
2018-11-12T02:37:53.253Z,100114.34
2018-11-12T02:40:22.473Z,100112.71
2018-11-12T02:42:51.788Z,100118.91
2018-11-12T02:45:21.011Z,100118.20
2018-11-12T02:47:50.230Z,100110.58
2018-11-12T02:50:19.435Z,100116.09
2018-11-12T02:52:48.856Z,100122.00
2018-11-12T02:55:18.013Z,100120.88
2018-11-12T02:57:47.700Z,100123.47
2018-11-12T03:00:19.279Z,100116.23
2018-11-12T03:02:48.475Z,100128.61
2018-11-12T03:05:17.737Z,100132.41
2018-11-12T03:07:47.243Z,100130.07
2018-11-12T03:10:19.752Z,100133.95
2018-11-12T03:12:49.099Z,100137.77
2018-11-12T03:15:19.117Z,100132.32
2018-11-12T03:17:49.170Z,100138.47
2018-11-12T03:20:19.532Z,100141.80
2018-11-12T03:22:49.017Z,100137.17
2018-11-12T03:25:19.401Z,100144.03
2018-11-12T03:27:49.485Z,100141.05
2018-11-12T03:30:20.662Z,100145.08
2018-11-12T03:32:50.774Z,100141.31
2018-11-12T03:35:20.140Z,100142.90
2018-11-12T03:37:50.052Z,100147.53
2018-11-12T03:40:21.359Z,100151.44
2018-11-12T03:42:51.280Z,100153.95
2018-11-12T03:45:22.666Z,100155.09
2018-11-12T03:47:51.937Z,100165.36
2018-11-12T03:50:22.839Z,100164.63
2018-11-12T03:52:52.358Z,100163.78
2018-11-12T03:55:22.429Z,100161.38
2018-11-12T03:57:51.864Z,100169.69
2018-11-12T04:00:23.493Z,100175.64
2018-11-12T04:02:52.993Z,100180.30
2018-11-12T04:05:22.193Z,100183.73
2018-11-12T04:07:51.634Z,100186.61
2018-11-12T04:10:21.604Z,100184.47
2018-11-12T04:12:51.330Z,100186.33
2018-11-12T04:15:23.129Z,100187.52
2018-11-12T04:17:52.561Z,100177.73
2018-11-12T04:20:22.999Z,100180.00
2018-11-12T04:23:03.691Z,100189.69
2018-11-12T04:25:34.669Z,100189.96
2018-11-12T04:28:04.285Z,100197.91
2018-11-12T04:30:33.585Z,100201.33
2018-11-12T04:33:02.934Z,100204.09
2018-11-12T04:35:32.509Z,100207.58
2018-11-12T04:38:01.869Z,100216.45
2018-11-12T04:40:31.297Z,100211.41
2018-11-12T04:43:00.689Z,100216.72
2018-11-12T04:45:30.124Z,100225.83
2018-11-12T04:47:59.589Z,100227.89
2018-11-12T04:50:29.533Z,100228.10
2018-11-12T04:52:59.071Z,100127.14
2018-11-12T04:55:28.428Z,100231.91
2018-11-12T04:57:58.123Z,100237.10
2018-11-12T05:00:28.630Z,100229.16
2018-11-12T05:02:58.209Z,100220.07
2018-11-12T05:05:28.512Z,100217.70
2018-11-12T05:07:58.334Z,100225.88
2018-11-12T05:10:28.200Z,100231.33
2018-11-12T05:12:57.613Z,100232.44
2018-11-12T05:15:27.421Z,100236.98
2018-11-12T05:17:56.744Z,100239.50
2018-11-12T05:20:28.505Z,100244.09
2018-11-12T05:22:57.874Z,100251.45
2018-11-12T05:25:27.287Z,100262.75
2018-11-12T05:27:57.029Z,100257.14
2018-11-12T05:30:28.472Z,100262.87
2018-11-12T05:32:58.827Z,100270.50
2018-11-12T05:35:29.409Z,100270.58
2018-11-12T05:37:58.804Z,100271.57
2018-11-12T05:40:29.370Z,100271.23
2018-11-12T05:42:59.077Z,100272.41
2018-11-12T05:45:29.092Z,100266.23
2018-11-12T05:47:58.244Z,100271.63
2018-11-12T05:50:29.660Z,100272.42
2018-11-12T05:53:03.593Z,100282.22
2018-11-12T05:55:33.485Z,100280.98
2018-11-12T05:58:02.908Z,100292.08
2018-11-12T06:00:33.342Z,100292.42
2018-11-12T06:03:02.630Z,100293.50
2018-11-12T06:05:32.323Z,100292.85
2018-11-12T06:08:01.640Z,100295.83
2018-11-12T06:10:31.718Z,100289.67
2018-11-12T06:13:01.135Z,100295.48
2018-11-12T06:15:30.262Z,100307.44
2018-11-12T06:17:59.358Z,100306.83
2018-11-12T06:20:29.839Z,100307.94
2018-11-12T06:22:59.027Z,100307.28
2018-11-12T06:25:29.787Z,100305.95
2018-11-12T06:27:59.014Z,100301.27
2018-11-12T06:30:30.702Z,100299.46
2018-11-12T06:32:59.843Z,100300.23
2018-11-12T06:35:29.385Z,100305.53
2018-11-12T06:37:58.973Z,100296.43
2018-11-12T06:40:28.745Z,100295.51
2018-11-12T06:42:57.977Z,100296.84
2018-11-12T06:45:28.473Z,100295.52
2018-11-12T06:48:01.688Z,100309.11
2018-11-12T06:50:33.118Z,100309.47
2018-11-12T06:53:04.630Z,100312.13
2018-11-12T06:55:34.857Z,100318.59
2018-11-12T06:58:06.313Z,100322.73
2018-11-12T07:00:37.773Z,100329.53
2018-11-12T07:03:10.204Z,100329.51
2018-11-12T07:05:40.378Z,100326.42
2018-11-12T07:08:11.332Z,100320.95
2018-11-12T07:10:41.699Z,100327.86
2018-11-12T07:13:13.848Z,100330.91
2018-11-12T07:15:44.799Z,100333.27
2018-11-12T07:18:16.933Z,100335.55
2018-11-12T07:20:47.754Z,100333.34
2018-11-12T07:23:18.009Z,100339.55
2018-11-12T07:25:49.897Z,100331.58
2018-11-12T07:28:23.506Z,100331.66
2018-11-12T07:30:53.611Z,100329.02
2018-11-12T07:33:24.245Z,100329.92
2018-11-12T07:35:53.949Z,100332.32
2018-11-12T07:38:23.427Z,100337.08
2018-11-12T07:40:54.968Z,100338.94
2018-11-12T07:43:24.220Z,100333.38
2018-11-12T07:45:54.161Z,100344.86
2018-11-12T07:48:24.292Z,100331.41
2018-11-12T07:50:54.011Z,100325.71
2018-11-12T07:53:26.050Z,100329.34
2018-11-12T07:55:55.697Z,100327.61
2018-11-12T07:58:25.999Z,100333.14
2018-11-12T08:00:56.409Z,100327.88
2018-11-12T08:03:26.544Z,100325.35
2018-11-12T08:05:56.521Z,100328.11
2018-11-12T08:08:27.810Z,100331.63
2018-11-12T08:10:57.608Z,100327.52
2018-11-12T08:13:27.776Z,100323.93
2018-11-12T08:15:57.784Z,100329.45
2018-11-12T08:18:28.639Z,100339.65
2018-11-12T08:21:01.690Z,100339.19
2018-11-12T08:23:31.581Z,100340.23
2018-11-12T08:26:03.403Z,100336.85
2018-11-12T08:28:34.114Z,100339.19
2018-11-12T08:31:05.544Z,100340.94
2018-11-12T08:33:35.524Z,100342.99
2018-11-12T08:36:06.255Z,100337.00
2018-11-12T08:38:37.805Z,100339.48
2018-11-12T08:41:07.970Z,100321.73
2018-11-12T08:43:37.938Z,100327.48
2018-11-12T08:46:07.952Z,100332.97
2018-11-12T08:48:39.539Z,100338.36
2018-11-12T08:51:10.704Z,100323.13
2018-11-12T08:53:43.456Z,100328.44
2018-11-12T08:56:14.311Z,100324.58
2018-11-12T08:58:44.077Z,100323.59
2018-11-12T09:01:15.910Z,100325.70
2018-11-12T09:03:47.085Z,100322.36
2018-11-12T09:06:18.985Z,100322.02
2018-11-12T09:08:48.526Z,100316.80
2018-11-12T09:11:21.489Z,100319.66
2018-11-12T09:13:54.877Z,100318.30
2018-11-12T09:16:24.178Z,100318.94
2018-11-12T09:18:54.638Z,100316.45
2018-11-12T09:21:24.647Z,100310.40
2018-11-12T09:23:56.985Z,100311.75
2018-11-12T09:26:31.070Z,100311.64
2018-11-12T09:29:04.328Z,100309.91
2018-11-12T09:31:35.576Z,100306.16
2018-11-12T09:34:08.002Z,100309.26
2018-11-12T09:36:39.501Z,100308.35
2018-11-12T09:39:11.483Z,100302.70
2018-11-12T09:41:44.260Z,100297.16
2018-11-12T09:44:14.033Z,100292.28
2018-11-12T09:46:46.919Z,100292.15
2018-11-12T09:49:30.247Z,100282.45
2018-11-12T09:52:06.536Z,100280.46
2018-11-12T09:54:47.176Z,100280.55
2018-11-12T09:57:18.525Z,100275.88
2018-11-12T09:59:56.164Z,100267.11
2018-11-12T10:02:34.293Z,100268.55
2018-11-12T10:05:06.198Z,100269.27
2018-11-12T10:07:37.348Z,100265.50
2018-11-12T10:10:11.718Z,100255.09
2018-11-12T10:12:42.434Z,100253.09
2018-11-12T10:15:18.826Z,100251.36
2018-11-12T10:17:47.849Z,100254.48
2018-11-12T10:20:15.838Z,100251.31
2018-11-12T10:22:47.237Z,100246.06
2018-11-12T10:25:18.047Z,100243.97
2018-11-12T10:27:55.344Z,100251.41
2018-11-12T10:30:24.700Z,100242.12
2018-11-12T10:32:54.356Z,100241.20
2018-11-12T10:35:23.633Z,100244.47
2018-11-12T10:38:04.390Z,100241.28
2018-11-12T10:40:39.943Z,100246.75
2018-11-12T10:43:20.701Z,100242.41
2018-11-12T10:45:57.902Z,100236.09
2018-11-12T10:48:29.945Z,100237.52
2018-11-12T10:51:05.169Z,100233.46
2018-11-12T10:53:50.207Z,100236.55
2018-11-12T10:56:20.446Z,100233.77
2018-11-12T10:58:57.338Z,100234.98
2018-11-12T11:01:37.928Z,100198.58
2018-11-12T11:04:13.809Z,100223.27
2018-11-12T11:06:45.638Z,100214.86
2018-11-12T11:09:18.074Z,100209.27
2018-11-12T11:11:51.423Z,100212.81
2018-11-12T11:14:21.826Z,100211.17
2018-11-12T11:16:55.765Z,100202.20
2018-11-12T11:19:27.748Z,100202.52
2018-11-12T11:22:01.351Z,100199.64
2018-11-12T11:24:36.810Z,100197.01
2018-11-12T11:27:09.236Z,100189.81
2018-11-12T11:29:43.020Z,100188.09
2018-11-12T11:32:18.482Z,100182.98
2018-11-12T11:34:54.934Z,100179.25
2018-11-12T11:37:27.679Z,100179.39
2018-11-12T11:45:47.270Z,100173.36
2018-11-12T11:48:19.335Z,100165.08
2018-11-12T11:50:51.342Z,100160.84
2018-11-12T11:53:22.504Z,100165.83
2018-11-12T11:55:53.647Z,100154.97
2018-11-12T11:58:25.713Z,100153.80
2018-11-12T12:00:58.663Z,100160.25
2018-11-12T12:03:29.040Z,100161.84
2018-11-12T12:06:13.705Z,100163.73
2018-11-12T12:08:51.183Z,100153.01
2018-11-12T12:11:21.404Z,100152.95
2018-11-12T12:14:01.152Z,100155.73
2018-11-12T12:16:39.935Z,100154.11
2018-11-12T12:19:10.870Z,100155.44
2018-11-12T12:21:43.665Z,100161.86
2018-11-12T12:24:14.731Z,100165.23
2018-11-12T12:26:50.684Z,100160.66
2018-11-12T12:29:22.031Z,100164.18
2018-11-12T12:31:55.891Z,100160.19
2018-11-12T12:34:28.849Z,100164.66
2018-11-12T12:37:00.539Z,100159.17
2018-11-12T12:39:31.219Z,100160.04
2018-11-12T12:42:03.423Z,100155.14
2018-11-12T12:44:35.098Z,100152.20
2018-11-12T12:47:06.895Z,100152.55
2018-11-12T12:49:38.910Z,100160.05
2018-11-12T12:52:11.682Z,100157.16
2018-11-12T12:54:44.578Z,100154.31
2018-11-12T12:57:15.003Z,100161.42
2018-11-12T12:59:47.149Z,100159.53
2018-11-12T13:02:18.062Z,100163.61
2018-11-12T13:04:53.686Z,100163.92
2018-11-12T13:07:26.263Z,100165.39
2018-11-12T13:12:39.034Z,100162.62
2018-11-12T13:15:11.224Z,100168.39
2018-11-12T13:17:41.553Z,100160.80
2018-11-12T13:20:14.659Z,100162.13
2018-11-12T13:22:44.684Z,100162.00
2018-11-12T13:25:14.071Z,100161.42
2018-11-12T13:27:44.658Z,100157.93
2018-11-12T13:30:15.511Z,100162.64
2018-11-12T13:32:46.657Z,100159.94
2018-11-12T13:35:17.626Z,100156.22
2018-11-12T13:37:46.836Z,100159.63
2018-11-12T13:40:18.672Z,100151.11
2018-11-12T13:42:50.384Z,100154.84
2018-11-12T13:45:19.797Z,100151.78
2018-11-12T13:47:49.505Z,100142.54
2018-11-12T13:50:21.134Z,100143.42
2018-11-12T13:52:51.450Z,100139.63
2018-11-12T13:55:23.351Z,100135.74
2018-11-12T13:57:52.979Z,100134.80
2018-11-12T14:00:24.615Z,100129.80
2018-11-12T14:02:55.163Z,100130.31
2018-11-12T14:05:26.347Z,100129.14
2018-11-12T14:07:56.205Z,100130.92
2018-11-12T14:10:27.924Z,100129.23
2018-11-12T14:12:58.954Z,100131.45
2018-11-12T14:15:29.257Z,100131.02
2018-11-12T14:17:59.511Z,100128.26
2018-11-12T14:20:28.886Z,100133.93
2018-11-12T14:22:59.650Z,100136.88
2018-11-12T14:25:29.324Z,100135.28
2018-11-12T14:27:59.424Z,100126.45
2018-11-12T14:30:30.855Z,100136.42
2018-11-12T14:33:00.169Z,100134.38
2018-11-12T14:35:29.949Z,100135.47
2018-11-12T14:37:59.225Z,100143.36
2018-11-12T14:40:28.272Z,100139.03
2018-11-12T14:42:57.405Z,100149.61
2018-11-12T14:45:26.588Z,100149.30
2018-11-12T14:47:55.613Z,100154.41
2018-11-12T14:50:24.749Z,100152.28
2018-11-12T14:52:54.278Z,100152.16
2018-11-12T14:55:23.437Z,100149.89
2018-11-12T14:57:52.557Z,100146.66
2018-11-12T15:00:23.792Z,100151.55
2018-11-12T15:02:53.422Z,100159.84
2018-11-12T15:05:23.969Z,100163.49
2018-11-12T15:07:53.037Z,100166.40
2018-11-12T15:10:22.152Z,100167.38
2018-11-12T15:12:51.468Z,100180.66
2018-11-12T15:15:20.633Z,100183.41
2018-11-12T15:17:49.731Z,100178.30
2018-11-12T15:20:19.911Z,100177.27
2018-11-12T15:22:50.278Z,100180.33
2018-11-12T15:25:21.473Z,100177.52
2018-11-12T15:27:50.760Z,100185.77
2018-11-12T15:30:21.248Z,100182.10
2018-11-12T15:32:51.437Z,100186.48
2018-11-12T15:35:20.561Z,100189.55
2018-11-12T15:37:49.988Z,100186.01
2018-11-12T15:40:19.028Z,100196.48
2018-11-12T15:42:48.132Z,100190.91
2018-11-12T15:45:22.160Z,100201.86
2018-11-12T15:47:51.481Z,100200.87
2018-11-12T15:50:37.147Z,100194.27
2018-11-12T15:53:06.223Z,100203.38
2018-11-12T15:55:35.272Z,100204.39
2018-11-12T15:58:04.463Z,100198.65
2018-11-12T16:00:33.605Z,100203.05
2018-11-12T16:03:02.654Z,100197.50
2018-11-12T16:05:31.874Z,100199.19
2018-11-12T16:08:00.898Z,100200.35
2018-11-12T16:10:30.022Z,100209.63
2018-11-12T16:12:59.219Z,100212.30
2018-11-12T16:15:28.353Z,100218.21
2018-11-12T16:17:57.420Z,100227.83
2018-11-12T16:20:28.732Z,100232.74
2018-11-12T16:22:58.755Z,100241.86
2018-11-12T16:25:28.383Z,100239.67
2018-11-12T16:27:58.001Z,100247.06
2018-11-12T16:30:27.025Z,100254.27
2018-11-12T16:32:56.049Z,100255.95
2018-11-12T16:35:25.702Z,100259.05
2018-11-12T16:37:55.745Z,100258.15
2018-11-12T16:40:24.805Z,100257.47
2018-11-12T16:42:53.898Z,100258.79
2018-11-12T16:45:22.938Z,100259.86
2018-11-12T16:47:52.043Z,100269.43
2018-11-12T16:50:21.297Z,100269.67
2018-11-12T16:52:51.286Z,100277.77
2018-11-12T16:55:21.742Z,100270.06
2018-11-12T16:57:51.623Z,100276.81
2018-11-12T17:00:22.247Z,100274.67
2018-11-12T17:02:51.482Z,100283.97
2018-11-12T17:05:22.000Z,100284.33
2018-11-12T17:07:51.376Z,100295.14
2018-11-12T17:10:21.828Z,100290.25
2018-11-12T17:12:51.156Z,100295.02
2018-11-12T17:15:20.272Z,100296.17
2018-11-12T17:17:49.572Z,100298.20
2018-11-12T17:20:20.100Z,100300.56
2018-11-12T17:22:49.214Z,100300.55
2018-11-12T17:25:18.604Z,100292.12
2018-11-12T17:27:48.166Z,100295.84
2018-11-12T17:30:19.584Z,100293.97
2018-11-12T17:32:49.368Z,100295.51
2018-11-12T17:35:19.560Z,100290.77
2018-11-12T17:37:48.619Z,100297.46
2018-11-12T17:40:25.938Z,100300.86
2018-11-12T17:42:55.893Z,100304.43
2018-11-12T17:45:26.607Z,100307.93
2018-11-12T17:47:56.493Z,100307.97
2018-11-12T17:50:25.491Z,100303.72
2018-11-12T17:52:54.596Z,100316.72
2018-11-12T17:55:23.625Z,100312.70
2018-11-12T17:57:52.752Z,100311.64
2018-11-12T18:00:24.994Z,100312.30
2018-11-12T18:02:54.079Z,100309.73
2018-11-12T18:05:23.293Z,100306.34
2018-11-12T18:07:52.555Z,100315.31
2018-11-12T18:10:21.949Z,100322.20
2018-11-12T18:12:51.013Z,100316.92
2018-11-12T18:15:21.371Z,100317.12
2018-11-12T18:17:56.138Z,100318.86
2018-11-12T18:20:27.437Z,100317.71
2018-11-12T18:22:57.048Z,100316.08
2018-11-12T18:25:26.262Z,100313.77
2018-11-12T18:27:56.009Z,100315.73
2018-11-12T18:30:26.596Z,100319.00
2018-11-12T18:32:56.828Z,100322.75
2018-11-12T18:35:25.963Z,100322.61
2018-11-12T18:37:55.148Z,100325.36
2018-11-12T18:40:25.733Z,100326.11
2018-11-12T18:42:54.947Z,100322.06
2018-11-12T18:45:25.529Z,100327.55
2018-11-12T18:47:55.063Z,100332.91
2018-11-12T18:50:25.956Z,100337.13
2018-11-12T18:52:59.331Z,100334.80
2018-11-12T18:55:28.609Z,100339.77
2018-11-12T18:57:58.458Z,100351.75
2018-11-12T19:00:28.072Z,100352.52
2018-11-12T19:02:57.379Z,100359.93
2018-11-12T19:05:28.964Z,100364.72
2018-11-12T19:08:00.377Z,100365.03
2018-11-12T19:10:34.468Z,100360.97
2018-11-12T19:13:03.682Z,100321.50
2018-11-12T19:15:38.026Z,100367.04
2018-11-12T19:18:10.823Z,100372.78
2018-11-12T19:20:39.997Z,100365.36
2018-11-12T19:23:09.101Z,100374.14
2018-11-12T19:25:38.306Z,100366.98
2018-11-12T19:28:07.536Z,100372.70
2018-11-12T19:30:36.733Z,100376.63
2018-11-12T19:33:06.305Z,100375.83
2018-11-12T19:35:37.559Z,100378.18
2018-11-12T19:38:07.090Z,100380.19
2018-11-12T19:40:36.308Z,100375.16
2018-11-12T19:43:07.494Z,100379.70
2018-11-12T19:45:39.835Z,100387.72
2018-11-12T19:48:12.533Z,100387.14
2018-11-12T19:50:44.250Z,100387.28
2018-11-12T19:53:13.625Z,100380.32
2018-11-12T19:55:43.133Z,100378.06
2018-11-12T19:58:12.287Z,100382.44
2018-11-12T20:00:41.377Z,100385.16
2018-11-12T20:03:10.500Z,100382.38
2018-11-12T20:05:39.744Z,100384.05
2018-11-12T20:08:09.063Z,100391.48
2018-11-12T20:10:38.294Z,100386.13
2018-11-12T20:13:07.490Z,100388.10
2018-11-12T20:15:36.652Z,100388.28
2018-11-12T20:18:05.907Z,100394.06
2018-11-12T20:20:35.551Z,100388.33
2018-11-12T20:23:04.684Z,100392.49
2018-11-12T20:25:33.838Z,100395.86
2018-11-12T20:28:03.110Z,100398.80
2018-11-12T20:30:35.711Z,100397.33
2018-11-12T20:33:05.282Z,100396.98
2018-11-12T20:35:34.364Z,100397.13
2018-11-12T20:38:03.568Z,100398.41
2018-11-12T20:40:32.818Z,100396.05
2018-11-12T20:43:02.070Z,100395.80
2018-11-12T20:45:31.577Z,100402.22
2018-11-12T20:48:00.753Z,100398.09
2018-11-12T20:50:29.826Z,100393.19
2018-11-12T20:52:58.993Z,100402.23
2018-11-12T20:55:28.081Z,100397.07
2018-11-12T20:57:58.174Z,100397.77
2018-11-12T21:00:28.673Z,100396.63
2018-11-12T21:03:00.486Z,100400.32
2018-11-12T21:05:30.560Z,100400.04
2018-11-12T21:07:59.765Z,100403.14
2018-11-12T21:10:29.029Z,100401.53
2018-11-12T21:12:58.270Z,100402.40
2018-11-12T21:15:27.592Z,100406.63
2018-11-12T21:17:56.801Z,100404.34
2018-11-12T21:20:26.956Z,100399.13
2018-11-12T21:22:56.366Z,100400.02
2018-11-12T21:25:26.512Z,100400.59
2018-11-12T21:27:55.946Z,100400.88
2018-11-12T21:30:27.238Z,100404.97
2018-11-12T21:32:56.300Z,100410.65
2018-11-12T21:35:25.680Z,100420.33
2018-11-12T21:37:55.712Z,100422.59
2018-11-12T21:40:26.174Z,100420.13
2018-11-12T21:42:55.270Z,100424.34
2018-11-12T21:45:30.921Z,100420.74
2018-11-12T21:48:00.209Z,100425.68
2018-11-12T21:50:29.377Z,100429.01
2018-11-12T21:52:58.761Z,100426.69
2018-11-12T21:55:28.229Z,100427.73
2018-11-12T21:57:58.133Z,100424.98
2018-11-12T22:00:28.842Z,100428.67
2018-11-12T22:03:00.076Z,100439.30
2018-11-12T22:05:30.482Z,100433.59
2018-11-12T22:08:00.241Z,100438.55
2018-11-12T22:10:29.900Z,100434.86
2018-11-12T22:12:59.495Z,100431.84
2018-11-12T22:15:29.103Z,100432.02
2018-11-12T22:17:59.456Z,100438.03
2018-11-12T22:20:29.669Z,100426.75
2018-11-12T22:22:58.999Z,100431.77
2018-11-12T22:25:28.715Z,100440.97
2018-11-12T22:28:00.976Z,100435.05
2018-11-12T22:30:30.874Z,100441.70
2018-11-12T22:33:00.925Z,100442.57
2018-11-12T22:35:30.619Z,100444.77
2018-11-12T22:38:00.253Z,100441.46
2018-11-12T22:40:29.868Z,100432.83
2018-11-12T22:42:59.524Z,100426.95
2018-11-12T22:45:29.241Z,100430.48
2018-11-12T22:47:58.853Z,100423.52
2018-11-12T22:50:28.459Z,100425.91
2018-11-12T22:52:58.325Z,100427.26
2018-11-12T22:55:27.800Z,100425.27
2018-11-12T22:57:57.397Z,100427.75
2018-11-12T23:00:31.560Z,100419.41
2018-11-12T23:03:01.330Z,100419.98
2018-11-12T23:05:31.402Z,100427.36
2018-11-12T23:08:01.598Z,100425.89
2018-11-12T23:10:31.101Z,100431.27
2018-11-12T23:13:00.867Z,100426.11
2018-11-12T23:15:30.429Z,100428.86
2018-11-12T23:18:00.330Z,100430.62
2018-11-12T23:20:30.533Z,100427.02
2018-11-12T23:23:00.344Z,100427.94
2018-11-12T23:25:30.522Z,100429.42
2018-11-12T23:28:00.278Z,100433.95
2018-11-12T23:30:30.898Z,100426.41
2018-11-12T23:33:00.487Z,100434.16
2018-11-12T23:35:30.173Z,100434.80
2018-11-12T23:38:00.260Z,100442.72
2018-11-12T23:40:29.817Z,100443.02
2018-11-12T23:42:59.345Z,100442.94
2018-11-12T23:45:28.880Z,100442.22
2018-11-12T23:47:58.521Z,100447.44
2018-11-12T23:50:28.268Z,100443.42
2018-11-12T23:52:57.992Z,100441.80
2018-11-12T23:55:27.496Z,100439.91
2018-11-12T23:57:57.296Z,100440.13
